createdAt,value
2018-12-18T00:00:34.177Z,3.36
2018-12-18T00:03:03.418Z,3.37
2018-12-18T00:05:35.118Z,3.40
2018-12-18T00:08:05.286Z,3.39
2018-12-18T00:10:39.361Z,3.31
2018-12-18T00:13:08.053Z,3.29
2018-12-18T00:15:37.143Z,3.26
2018-12-18T00:18:06.159Z,3.34
2018-12-18T00:20:35.276Z,3.31
2018-12-18T00:23:04.355Z,3.37
2018-12-18T00:25:33.449Z,3.32
2018-12-18T00:28:02.134Z,3.21
2018-12-18T00:30:31.004Z,3.14
2018-12-18T00:33:00.045Z,3.07
2018-12-18T00:35:29.216Z,3.03
2018-12-18T00:37:58.148Z,3.00
2018-12-18T00:40:27.190Z,2.86
2018-12-18T00:42:56.333Z,2.79
2018-12-18T00:45:25.392Z,2.79
2018-12-18T00:47:54.221Z,2.79
2018-12-18T00:50:23.298Z,2.79
2018-12-18T00:52:52.204Z,2.77
2018-12-18T00:55:21.362Z,2.85
2018-12-18T00:57:50.473Z,2.88
2018-12-18T01:00:19.898Z,2.91
2018-12-18T01:02:48.556Z,2.88
2018-12-18T01:05:18.461Z,2.87
2018-12-18T01:07:53.128Z,2.83
2018-12-18T01:10:18.236Z,2.89
2018-12-18T01:12:47.207Z,2.86
2018-12-18T01:15:16.260Z,2.85
2018-12-18T01:17:45.262Z,2.87
2018-12-18T01:20:14.441Z,2.88
2018-12-18T01:22:43.507Z,2.86
2018-12-18T01:25:12.537Z,2.80
2018-12-18T01:27:41.693Z,2.85
2018-12-18T01:30:10.443Z,2.86
2018-12-18T01:32:39.481Z,2.82
2018-12-18T01:35:08.637Z,2.82
2018-12-18T01:37:37.490Z,2.81
2018-12-18T01:40:06.922Z,2.82
2018-12-18T01:42:35.955Z,2.81
2018-12-18T01:45:05.440Z,2.80
2018-12-18T01:47:34.349Z,2.75
2018-12-18T01:50:03.259Z,2.68
2018-12-18T01:52:32.229Z,2.65
2018-12-18T01:55:01.324Z,2.60
2018-12-18T01:57:30.453Z,2.60
2018-12-18T01:59:59.560Z,2.63
2018-12-18T02:02:28.608Z,2.65
2018-12-18T02:04:57.702Z,2.67
2018-12-18T02:07:26.548Z,2.66
2018-12-18T02:09:55.597Z,2.60
2018-12-18T02:12:24.991Z,2.57
2018-12-18T02:14:53.979Z,2.55
2018-12-18T02:17:23.016Z,2.51
2018-12-18T02:19:51.965Z,2.47
2018-12-18T02:22:21.021Z,2.46
2018-12-18T02:24:49.664Z,2.41
2018-12-18T02:27:18.841Z,2.41
2018-12-18T02:29:47.985Z,2.36
2018-12-18T02:32:17.094Z,2.29
2018-12-18T02:34:46.262Z,2.29
2018-12-18T02:37:15.115Z,2.25
2018-12-18T02:39:44.027Z,2.22
2018-12-18T02:42:12.807Z,2.19
2018-12-18T02:44:41.901Z,2.16
2018-12-18T02:47:10.984Z,2.14
2018-12-18T02:49:39.637Z,2.13
2018-12-18T02:52:08.612Z,2.13
2018-12-18T02:54:37.635Z,2.13
2018-12-18T02:57:06.653Z,2.21
2018-12-18T02:59:35.736Z,2.21
2018-12-18T03:02:04.740Z,2.17
2018-12-18T03:04:33.660Z,2.23
2018-12-18T03:07:02.614Z,2.31
2018-12-18T03:09:31.773Z,2.39
2018-12-18T03:12:00.704Z,2.41
2018-12-18T03:14:29.524Z,2.48
2018-12-18T03:16:58.404Z,2.52
2018-12-18T03:19:27.576Z,2.51
2018-12-18T03:21:56.533Z,2.51
2018-12-18T03:24:25.490Z,2.45
2018-12-18T03:26:54.550Z,2.41
2018-12-18T03:29:23.925Z,2.47
2018-12-18T03:31:57.766Z,2.52
2018-12-18T03:34:28.437Z,2.48
2018-12-18T03:36:57.788Z,2.46
2018-12-18T03:39:26.621Z,2.41
2018-12-18T03:41:55.831Z,2.37
2018-12-18T03:44:24.969Z,2.31
2018-12-18T03:46:53.680Z,2.33
2018-12-18T03:49:22.498Z,2.35
2018-12-18T03:51:51.601Z,2.41
2018-12-18T03:54:20.289Z,2.39
2018-12-18T03:56:49.376Z,2.38
2018-12-18T03:59:18.085Z,2.37
2018-12-18T04:01:47.110Z,2.39
2018-12-18T04:04:15.776Z,2.33
2018-12-18T04:06:44.832Z,2.32
2018-12-18T04:09:13.589Z,2.29
2018-12-18T04:11:47.878Z,2.28
2018-12-18T04:14:16.868Z,2.28
2018-12-18T04:16:46.008Z,2.33
2018-12-18T04:19:15.157Z,2.25
2018-12-18T04:21:44.075Z,2.18
2018-12-18T04:24:12.782Z,2.15
2018-12-18T04:26:41.526Z,2.10
2018-12-18T04:29:10.280Z,2.06
2018-12-18T04:31:39.030Z,2.01
2018-12-18T04:34:08.151Z,1.97
2018-12-18T04:36:37.334Z,1.95
2018-12-18T04:39:07.541Z,1.96
2018-12-18T04:41:36.605Z,1.97
2018-12-18T04:44:05.506Z,1.96
2018-12-18T04:46:34.499Z,1.97
2018-12-18T04:49:03.493Z,2.00
2018-12-18T04:51:32.556Z,1.99
2018-12-18T04:54:01.492Z,1.97
2018-12-18T04:56:30.571Z,1.90
2018-12-18T04:58:59.698Z,1.90
2018-12-18T05:01:28.853Z,1.92
2018-12-18T05:03:57.868Z,1.91
2018-12-18T05:06:26.507Z,1.88
2018-12-18T05:08:55.565Z,1.84
2018-12-18T05:11:24.208Z,1.83
2018-12-18T05:13:53.064Z,1.79
2018-12-18T05:16:22.020Z,1.79
2018-12-18T05:18:51.333Z,1.77
2018-12-18T05:21:20.387Z,1.79
2018-12-18T05:23:49.309Z,1.75
2018-12-18T05:26:18.069Z,1.73
2018-12-18T05:28:47.207Z,1.79
2018-12-18T05:31:16.203Z,1.84
2018-12-18T05:33:45.239Z,1.84
2018-12-18T05:36:14.381Z,1.81
2018-12-18T05:38:43.416Z,1.83
2018-12-18T05:41:12.526Z,1.80
2018-12-18T05:43:41.624Z,1.78
2018-12-18T05:46:10.712Z,1.80
2018-12-18T05:48:39.766Z,1.80
2018-12-18T05:51:08.843Z,1.81
2018-12-18T05:53:38.007Z,1.83
2018-12-18T05:56:06.880Z,1.82
2018-12-18T05:58:35.669Z,1.83
2018-12-18T06:01:04.442Z,1.80
2018-12-18T06:03:33.712Z,1.71
2018-12-18T06:06:02.508Z,1.68
2018-12-18T06:08:31.621Z,1.65
2018-12-18T06:11:00.676Z,1.62
2018-12-18T06:13:29.875Z,1.59
2018-12-18T06:15:58.995Z,1.58
2018-12-18T06:18:27.714Z,1.55
2018-12-18T06:20:56.604Z,1.58
2018-12-18T06:23:25.506Z,1.62
2018-12-18T06:25:54.395Z,1.62
2018-12-18T06:28:23.043Z,1.57
2018-12-18T06:30:51.789Z,1.50
2018-12-18T06:33:20.748Z,1.52
2018-12-18T06:35:49.576Z,1.55
2018-12-18T06:38:18.686Z,1.53
2018-12-18T06:40:47.629Z,1.54
2018-12-18T06:43:16.596Z,1.56
2018-12-18T06:45:45.332Z,1.51
2018-12-18T06:48:14.273Z,1.47
2018-12-18T06:50:42.970Z,1.45
2018-12-18T06:53:12.035Z,1.40
2018-12-18T06:55:41.068Z,1.38
2018-12-18T06:58:10.015Z,1.38
2018-12-18T07:00:39.051Z,1.40
2018-12-18T07:03:08.140Z,1.38
2018-12-18T07:05:37.131Z,1.36
2018-12-18T07:08:05.976Z,1.38
2018-12-18T07:10:34.941Z,1.34
2018-12-18T07:13:03.965Z,1.32
2018-12-18T07:15:33.307Z,1.33
2018-12-18T07:18:02.447Z,1.32
2018-12-18T07:20:31.227Z,1.34
2018-12-18T07:23:00.085Z,1.37
2018-12-18T07:25:29.222Z,1.37
2018-12-18T07:27:58.208Z,1.36
2018-12-18T07:30:27.263Z,1.34
2018-12-18T07:32:56.417Z,1.32
2018-12-18T07:35:25.491Z,1.31
2018-12-18T07:37:54.449Z,1.27
2018-12-18T07:40:23.216Z,1.33
2018-12-18T07:42:52.257Z,1.38
2018-12-18T07:45:21.419Z,1.49
2018-12-18T07:47:50.210Z,1.49
2018-12-18T07:50:19.403Z,1.50
2018-12-18T07:52:48.439Z,1.48
2018-12-18T07:55:17.503Z,1.56
2018-12-18T07:57:46.448Z,1.64
2018-12-18T08:00:15.600Z,1.62
2018-12-18T08:02:44.630Z,1.54
2018-12-18T08:05:13.876Z,1.54
2018-12-18T08:07:42.843Z,1.55
2018-12-18T08:10:11.752Z,1.60
2018-12-18T08:12:40.918Z,1.67
2018-12-18T08:15:09.822Z,1.69
2018-12-18T08:17:38.626Z,1.71
2018-12-18T08:20:08.184Z,1.75
2018-12-18T08:22:36.922Z,1.78
2018-12-18T08:25:06.840Z,1.87
2018-12-18T08:27:35.728Z,1.90
2018-12-18T08:30:04.860Z,1.93
2018-12-18T08:32:34.020Z,1.90
2018-12-18T08:35:03.111Z,1.93
2018-12-18T08:37:32.169Z,1.95
2018-12-18T08:40:01.194Z,1.98
2018-12-18T08:42:30.106Z,2.05
2018-12-18T08:44:59.150Z,2.10
2018-12-18T08:47:28.093Z,2.16
2018-12-18T08:49:57.133Z,2.16
2018-12-18T08:52:26.195Z,2.10
2018-12-18T08:54:55.160Z,2.11
2018-12-18T08:57:24.103Z,2.10
2018-12-18T08:59:53.072Z,2.07
2018-12-18T09:02:22.034Z,2.09
2018-12-18T09:04:51.219Z,2.06
2018-12-18T09:07:20.113Z,2.06
2018-12-18T09:09:49.213Z,2.05
2018-12-18T09:12:18.303Z,2.07
2018-12-18T09:14:52.651Z,2.10
2018-12-18T09:17:26.805Z,2.12
2018-12-18T09:19:55.884Z,2.16
2018-12-18T09:22:24.990Z,2.15
2018-12-18T09:24:53.963Z,2.24
2018-12-18T09:27:23.017Z,2.24
2018-12-18T09:29:51.971Z,2.30
2018-12-18T09:32:20.788Z,2.31
2018-12-18T09:34:49.442Z,2.35
2018-12-18T09:37:18.509Z,2.37
2018-12-18T09:39:47.659Z,2.38
2018-12-18T09:42:21.812Z,2.43
2018-12-18T09:44:50.788Z,2.44
2018-12-18T09:47:19.549Z,2.37
2018-12-18T09:49:48.683Z,2.37
2018-12-18T09:52:17.705Z,2.37
2018-12-18T09:54:46.829Z,2.42
2018-12-18T09:57:20.935Z,2.48
2018-12-18T09:59:49.855Z,2.52
2018-12-18T10:02:18.815Z,2.62
2018-12-18T10:04:47.905Z,2.70
2018-12-18T10:07:16.572Z,2.74
2018-12-18T10:09:45.434Z,2.83
2018-12-18T10:12:16.532Z,2.85
2018-12-18T10:14:45.429Z,2.87
2018-12-18T10:17:14.352Z,2.98
2018-12-18T10:19:43.059Z,3.09
2018-12-18T10:22:11.893Z,3.17
2018-12-18T10:24:40.810Z,3.22
2018-12-18T10:27:09.495Z,3.19
2018-12-18T10:29:38.667Z,3.18
2018-12-18T10:32:07.552Z,3.17
2018-12-18T10:34:36.540Z,3.17
2018-12-18T10:37:05.541Z,3.22
2018-12-18T10:39:34.635Z,3.21
2018-12-18T10:42:03.454Z,3.19
2018-12-18T10:44:32.619Z,3.24
2018-12-18T10:47:01.487Z,3.31
2018-12-18T10:49:30.222Z,3.40
2018-12-18T10:51:59.179Z,3.49
2018-12-18T10:54:27.947Z,3.49
2018-12-18T10:56:56.910Z,3.44
2018-12-18T10:59:25.991Z,3.45
2018-12-18T11:01:57.265Z,3.41
2018-12-18T11:04:26.394Z,3.40
2018-12-18T11:06:55.661Z,3.34
2018-12-18T11:09:24.814Z,3.27
2018-12-18T11:11:53.547Z,3.27
2018-12-18T11:14:22.571Z,3.36
2018-12-18T11:16:51.321Z,3.40
2018-12-18T11:19:20.299Z,3.41
2018-12-18T11:21:49.276Z,3.38
2018-12-18T11:24:18.384Z,3.28
2018-12-18T11:26:47.062Z,3.23
2018-12-18T11:29:16.121Z,3.12
2018-12-18T11:31:44.910Z,3.03
2018-12-18T11:34:14.038Z,2.96
2018-12-18T11:36:43.093Z,2.85
2018-12-18T11:39:11.870Z,2.73
2018-12-18T11:41:40.720Z,2.70
2018-12-18T11:44:09.529Z,2.62
2018-12-18T11:46:38.526Z,2.58
2018-12-18T11:49:07.420Z,2.48
2018-12-18T11:51:36.492Z,2.43
2018-12-18T11:54:05.267Z,2.37
2018-12-18T11:56:35.128Z,2.29
2018-12-18T11:59:04.373Z,2.28
2018-12-18T12:01:33.317Z,2.18
2018-12-18T12:04:02.250Z,2.12
2018-12-18T12:06:31.358Z,2.08
2018-12-18T12:09:00.288Z,2.12
2018-12-18T12:11:29.256Z,2.10
2018-12-18T12:13:58.024Z,2.14
2018-12-18T12:16:27.070Z,2.08
2018-12-18T12:18:56.167Z,2.13
2018-12-18T12:21:25.363Z,2.16
2018-12-18T12:23:54.129Z,2.18
2018-12-18T12:26:28.204Z,2.15
2018-12-18T12:28:56.936Z,2.16
2018-12-18T12:31:25.736Z,2.14
2018-12-18T12:33:54.915Z,2.14
2018-12-18T12:36:29.447Z,2.14
2018-12-18T12:38:54.724Z,2.15
2018-12-18T12:41:23.661Z,2.15
2018-12-18T12:43:52.522Z,2.15
2018-12-18T12:46:21.706Z,2.12
2018-12-18T12:48:54.737Z,2.12
2018-12-18T12:51:23.918Z,2.08
2018-12-18T12:53:52.616Z,2.15
2018-12-18T12:56:21.363Z,2.18
2018-12-18T12:58:50.264Z,2.19
2018-12-18T13:01:19.284Z,2.26
2018-12-18T13:03:48.368Z,2.31
2018-12-18T13:06:17.449Z,2.31
2018-12-18T13:08:46.588Z,2.41
2018-12-18T13:11:15.654Z,2.44
2018-12-18T13:13:44.787Z,2.39
2018-12-18T13:16:13.853Z,2.50
2018-12-18T13:18:42.976Z,2.55
2018-12-18T13:21:11.998Z,2.57
2018-12-18T13:23:41.073Z,2.58
2018-12-18T13:26:10.055Z,2.57
2018-12-18T13:28:39.117Z,2.51
2018-12-18T13:31:08.263Z,2.51
2018-12-18T13:33:37.240Z,2.53
2018-12-18T13:36:06.297Z,2.53
2018-12-18T13:38:35.154Z,2.53
2018-12-18T13:41:04.269Z,2.52
2018-12-18T13:43:32.928Z,2.47
2018-12-18T13:46:01.978Z,2.52
2018-12-18T13:48:31.057Z,2.48
2018-12-18T13:51:00.091Z,2.47
2018-12-18T13:53:28.996Z,2.48
2018-12-18T13:55:57.934Z,2.41
2018-12-18T13:58:26.811Z,2.37
2018-12-18T14:00:55.674Z,2.36
2018-12-18T14:03:24.434Z,2.39
2018-12-18T14:05:53.425Z,2.37
2018-12-18T14:08:22.433Z,2.33
2018-12-18T14:10:51.459Z,2.32
2018-12-18T14:13:20.485Z,2.28
2018-12-18T14:15:49.599Z,2.27
2018-12-18T14:18:18.796Z,2.27
2018-12-18T14:20:47.843Z,2.27
2018-12-18T14:23:16.815Z,2.32
2018-12-18T14:25:45.832Z,2.24
2018-12-18T14:28:14.900Z,2.28
2018-12-18T14:30:43.952Z,2.28
2018-12-18T14:33:13.071Z,2.31
2018-12-18T14:35:42.141Z,2.30
2018-12-18T14:38:10.964Z,2.29
2018-12-18T14:40:39.919Z,2.36
2018-12-18T14:43:08.886Z,2.36
2018-12-18T14:45:37.704Z,2.38
2018-12-18T14:48:06.759Z,2.39
2018-12-18T14:50:35.649Z,2.41
2018-12-18T14:53:05.388Z,2.38
2018-12-18T14:55:34.340Z,2.34
2018-12-18T14:58:03.288Z,2.30
2018-12-18T15:00:32.347Z,2.31
2018-12-18T15:03:01.327Z,2.33
2018-12-18T15:05:30.144Z,2.33
2018-12-18T15:07:58.904Z,2.35
2018-12-18T15:10:27.715Z,2.32
2018-12-18T15:12:56.695Z,2.28
2018-12-18T15:15:25.577Z,2.21
2018-12-18T15:17:54.717Z,2.19
2018-12-18T15:20:23.864Z,2.22
2018-12-18T15:22:52.859Z,2.25
2018-12-18T15:25:21.638Z,2.26
2018-12-18T15:27:50.513Z,2.24
2018-12-18T15:30:25.715Z,2.21
2018-12-18T15:32:50.646Z,2.19
2018-12-18T15:35:19.890Z,2.21
2018-12-18T15:37:49.001Z,2.20
2018-12-18T15:40:18.200Z,2.16
2018-12-18T15:42:47.376Z,2.13
2018-12-18T15:45:16.505Z,2.15
2018-12-18T15:47:45.429Z,2.12
2018-12-18T15:50:14.369Z,2.11
2018-12-18T15:52:43.073Z,2.09
2018-12-18T15:55:12.269Z,2.05
2018-12-18T15:57:40.958Z,2.03
2018-12-18T16:00:10.253Z,2.00
2018-12-18T16:02:39.128Z,1.99
2018-12-18T16:05:08.758Z,1.98
2018-12-18T16:07:38.044Z,1.94
2018-12-18T16:10:07.513Z,1.96
2018-12-18T16:12:36.633Z,1.95
2018-12-18T16:15:06.329Z,1.96
2018-12-18T16:17:35.037Z,1.94
2018-12-18T16:20:04.391Z,1.96
2018-12-18T16:22:33.478Z,1.99
2018-12-18T16:25:02.554Z,1.98
2018-12-18T16:27:31.573Z,1.96
2018-12-18T16:30:00.659Z,1.93
2018-12-18T16:32:29.582Z,1.92
2018-12-18T16:34:58.796Z,1.93
2018-12-18T16:37:27.853Z,2.00
2018-12-18T16:39:57.195Z,2.00
2018-12-18T16:42:26.299Z,2.02
2018-12-18T16:44:56.533Z,2.02
2018-12-18T16:47:26.015Z,2.04
2018-12-18T16:49:56.260Z,2.02
2018-12-18T16:52:25.126Z,2.03
2018-12-18T16:54:54.166Z,2.03
2018-12-18T16:57:23.427Z,1.99
2018-12-18T16:59:52.214Z,1.95
2018-12-18T17:02:21.599Z,1.94
2018-12-18T17:04:50.722Z,1.93
2018-12-18T17:07:21.950Z,1.92
2018-12-18T17:09:50.994Z,1.95
2018-12-18T17:12:20.479Z,1.96
2018-12-18T17:14:49.472Z,1.95
2018-12-18T17:17:18.406Z,1.93
2018-12-18T17:19:47.781Z,1.93
2018-12-18T17:22:16.993Z,1.93
2018-12-18T17:24:45.980Z,1.95
2018-12-18T17:27:14.950Z,1.95
2018-12-18T17:29:44.084Z,1.95
2018-12-18T17:32:13.976Z,1.95
2018-12-18T17:34:43.879Z,1.97
2018-12-18T17:37:13.589Z,1.98
2018-12-18T17:39:42.948Z,1.98
2018-12-18T17:42:13.016Z,1.96
2018-12-18T17:44:43.318Z,1.97
2018-12-18T17:47:12.461Z,2.01
2018-12-18T17:49:42.172Z,2.02
2018-12-18T17:52:11.934Z,2.06
2018-12-18T17:54:41.507Z,2.07
2018-12-18T17:57:10.757Z,2.08
2018-12-18T17:59:41.056Z,2.07
2018-12-18T18:02:09.872Z,2.06
2018-12-18T18:04:39.061Z,2.07
2018-12-18T18:07:10.303Z,2.09
2018-12-18T18:09:39.502Z,2.06
2018-12-18T18:12:10.082Z,2.09
2018-12-18T18:14:40.152Z,2.09
2018-12-18T18:17:09.254Z,2.13
2018-12-18T18:19:38.318Z,2.16
2018-12-18T18:22:07.413Z,2.17
2018-12-18T18:24:36.721Z,2.25
2018-12-18T18:27:06.616Z,2.24
2018-12-18T18:29:36.159Z,2.25
2018-12-18T18:32:05.148Z,2.26
2018-12-18T18:34:34.351Z,2.28
2018-12-18T18:37:04.477Z,2.29
2018-12-18T18:39:33.718Z,2.27
2018-12-18T18:42:02.773Z,2.43
2018-12-18T18:44:33.691Z,2.47
2018-12-18T18:47:03.107Z,2.42
2018-12-18T18:49:32.370Z,2.39
2018-12-18T18:52:02.160Z,2.38
2018-12-18T18:54:31.512Z,2.31
2018-12-18T18:57:01.189Z,2.33
2018-12-18T18:59:31.129Z,2.36
2018-12-18T19:02:02.028Z,2.34
2018-12-18T19:04:30.905Z,2.39
2018-12-18T19:06:59.998Z,2.43
2018-12-18T19:09:29.263Z,2.38
2018-12-18T19:11:58.560Z,2.42
2018-12-18T19:14:28.256Z,2.41
2018-12-18T19:16:58.878Z,2.42
2018-12-18T19:19:27.953Z,2.47
2018-12-18T19:21:57.366Z,2.46
2018-12-18T19:24:26.476Z,2.39
2018-12-18T19:26:55.240Z,2.41
2018-12-18T19:29:24.289Z,2.38
2018-12-18T19:31:53.505Z,2.39
2018-12-18T19:34:22.526Z,2.49
2018-12-18T19:36:51.721Z,2.51
2018-12-18T19:39:21.253Z,2.51
2018-12-18T19:41:50.329Z,2.56
2018-12-18T19:44:19.339Z,2.50
2018-12-18T19:46:48.103Z,2.47
2018-12-18T19:49:17.657Z,2.41
2018-12-18T19:51:46.928Z,2.37
2018-12-18T19:54:16.327Z,2.34
2018-12-18T19:56:45.114Z,2.34
2018-12-18T19:59:14.016Z,2.32
2018-12-18T20:01:43.064Z,2.29
2018-12-18T20:04:12.066Z,2.23
2018-12-18T20:06:41.002Z,2.16
2018-12-18T20:09:09.847Z,2.17
2018-12-18T20:11:38.910Z,2.16
2018-12-18T20:14:07.960Z,2.12
2018-12-18T20:16:37.047Z,2.09
2018-12-18T20:19:06.191Z,2.09
2018-12-18T20:21:35.289Z,2.10
2018-12-18T20:24:03.932Z,2.07
2018-12-18T20:26:32.761Z,2.05
2018-12-18T20:29:01.688Z,2.08
2018-12-18T20:31:30.641Z,2.09
2018-12-18T20:33:59.578Z,2.09
2018-12-18T20:36:28.231Z,2.08
2018-12-18T20:38:57.016Z,2.06
2018-12-18T20:41:25.925Z,2.02
2018-12-18T20:43:54.859Z,1.99
2018-12-18T20:46:23.882Z,1.95
2018-12-18T20:48:52.800Z,1.94
2018-12-18T20:51:21.870Z,1.84
2018-12-18T20:53:50.919Z,1.77
2018-12-18T20:56:20.048Z,1.70
2018-12-18T20:58:48.794Z,1.65
2018-12-18T21:01:17.710Z,1.70
2018-12-18T21:03:47.117Z,1.71
2018-12-18T21:06:16.013Z,1.65
2018-12-18T21:08:45.056Z,1.58
2018-12-18T21:11:13.998Z,1.60
2018-12-18T21:13:42.939Z,1.69
2018-12-18T21:16:11.804Z,1.74
2018-12-18T21:18:40.608Z,1.72
2018-12-18T21:21:15.199Z,1.73
2018-12-18T21:23:40.591Z,1.68
2018-12-18T21:26:09.599Z,1.79
2018-12-18T21:28:38.651Z,1.74
2018-12-18T21:31:07.609Z,1.79
2018-12-18T21:33:36.567Z,1.83
2018-12-18T21:36:05.725Z,1.74
2018-12-18T21:38:34.963Z,1.64
2018-12-18T21:41:03.879Z,1.61
2018-12-18T21:43:33.168Z,1.58
2018-12-18T21:46:02.316Z,1.58
2018-12-18T21:48:31.412Z,1.56
2018-12-18T21:51:00.563Z,1.64
2018-12-18T21:53:29.637Z,1.61
2018-12-18T21:55:58.794Z,1.63
2018-12-18T21:58:27.812Z,1.59
2018-12-18T22:00:56.927Z,1.61
2018-12-18T22:03:25.777Z,1.58
2018-12-18T22:05:54.825Z,1.42
2018-12-18T22:08:23.794Z,1.42
2018-12-18T22:10:52.498Z,1.37
2018-12-18T22:13:21.582Z,1.35
2018-12-18T22:15:50.235Z,1.33
2018-12-18T22:18:19.223Z,1.30
2018-12-18T22:20:48.265Z,1.19
2018-12-18T22:23:17.864Z,1.18
2018-12-18T22:25:47.056Z,1.18
2018-12-18T22:28:16.152Z,1.24
2018-12-18T22:30:45.298Z,1.19
2018-12-18T22:33:14.431Z,1.22
2018-12-18T22:35:43.295Z,1.24
2018-12-18T22:38:12.420Z,1.26
2018-12-18T22:40:41.577Z,1.18
2018-12-18T22:43:10.666Z,1.19
2018-12-18T22:45:39.359Z,1.14
2018-12-18T22:48:08.272Z,1.13
2018-12-18T22:50:37.023Z,1.12
2018-12-18T22:53:05.937Z,1.13
2018-12-18T22:55:35.171Z,1.05
2018-12-18T22:58:04.165Z,1.05
2018-12-18T23:00:38.370Z,1.03
2018-12-18T23:03:07.056Z,1.00
2018-12-18T23:05:36.133Z,0.94
2018-12-18T23:08:04.968Z,0.95
2018-12-18T23:10:34.132Z,0.96
2018-12-18T23:13:03.060Z,0.90
2018-12-18T23:15:31.946Z,0.88
2018-12-18T23:18:00.801Z,0.86
2018-12-18T23:20:29.647Z,0.86
2018-12-18T23:22:58.669Z,0.85
2018-12-18T23:25:27.830Z,0.90
2018-12-18T23:27:56.872Z,0.92
2018-12-18T23:30:26.092Z,0.89
2018-12-18T23:32:55.163Z,0.95
2018-12-18T23:35:24.317Z,0.95
2018-12-18T23:37:53.421Z,0.91
2018-12-18T23:40:22.648Z,0.93
2018-12-18T23:42:51.718Z,0.97
2018-12-18T23:45:20.853Z,0.98
2018-12-18T23:47:49.781Z,1.02
2018-12-18T23:50:18.513Z,1.01
2018-12-18T23:52:47.370Z,0.99
2018-12-18T23:55:16.437Z,0.98
2018-12-18T23:57:45.387Z,0.99
